Aeroporto :
LOGIN :

Iscrizione | Disclaimer

   EN    FR    IT 

 










Sommario :    VFR   VFR Marginale   IFR   IFR Intensivo   IFR Molto Intensivo
Visibilità : 
Base nubi : 
>= 8 km
>= 3000ft
5 / 8 km
1000 / 3000 ft
1500m / 5 km
500 / 1000 ft
800 / 1500m
200 / 500 ft
< 800m
< 200 ft
Simboli :   Temporali  Nebbia  Neve Forte  Precipitazioni Forti  Vento > 20 kt
SIGMETs :   Varie  Temporali  Ghiacco  Turbolenza  Onda orograficha  Ceneri Vulcaniche






- Altitudine del aeroporto : 313 ft
- Codice IATA : LEH


LFOH - Le Havre Octeville

ULTIMO METAR :
  • 100530Z AUTO 12004KT 6000 NSC 19/17 Q1013 TEMPO SCT100CB

METARs OBSOLETI :
  • 100500Z AUTO 11005KT 080V140 5000 BR NSC 19/16 Q1013
  • 100430Z AUTO 11008KT 080V170 8000 NSC 19/16 Q1013
  • 100400Z AUTO 23008KT 8000 NSC 20/16 Q1012
  • 100330Z AUTO 21004KT 180V240 8000 NSC 20/16 Q1012
  • 100300Z AUTO 19006KT 140V240 9000 NSC 20/16 Q1012

TAF TAF LFOH
Valido dal 10 a 06 ore il 11 a 06 ore UTC


100500Z 1006/1106 16005KT CAVOK
TEMPO 1006/1106 SCT100CB
PROB30
TEMPO 1012/1106 VRB25G35KT 3000 TSRA BKN070CB
ATIS : +33 2 35 54 64 93



MetMap, La meteo Aeronautica in un colpo d'occhio ! - Copyright ORBIFLY Dicembre 2007 - Disclaimer

ORBIFLY MET'MAP TEAM :

Programmazione e sviluppo : Alexandra Zaïnal
Concezione : Baudouin d'Aumeries
Aiuto per la programmazione : Marc-Olivier Méhu
Supporto tecnico e logistico : Manuel Goepfert
Aiuto per la traduzione : Arnaldo La Scala

Contatto : metmap@orbifly.com




FONTI E CREDITI :

   NOAA